createdAt,value
2023-04-01T00:01:59.317Z,74.85
2023-04-01T00:07:02.773Z,63.72
2023-04-01T00:12:07.317Z,38.10
2023-04-01T00:17:10.345Z,5.82
2023-04-01T00:22:13.160Z,5.18
2023-04-01T00:27:17.617Z,18.25
2023-04-01T00:32:20.843Z,47.13
2023-04-01T00:37:23.808Z,72.65
2023-04-01T00:42:27.986Z,93.90
2023-04-01T00:47:30.915Z,105.87
2023-04-01T00:52:33.927Z,77.15
2023-04-01T00:57:38.837Z,92.40
2023-04-01T01:02:43.780Z,112.90
2023-04-01T01:07:51.646Z,103.38
2023-04-01T01:13:04.271Z,112.10
2023-04-01T01:18:12.758Z,116.37
2023-04-01T01:23:49.049Z,111.03
2023-04-01T01:28:59.868Z,101.35
2023-04-01T01:34:13.823Z,124.20
2023-04-01T01:39:20.339Z,113.97
2023-04-01T01:44:24.260Z,94.93
2023-04-01T01:49:27.629Z,105.75
2023-04-01T01:54:31.896Z,105.55
2023-04-01T01:59:35.481Z,111.60
2023-04-01T02:04:40.683Z,126.55
2023-04-01T02:09:45.474Z,129.47
2023-04-01T02:14:52.670Z,125.15
2023-04-01T02:19:58.431Z,69.37
2023-04-01T02:25:07.394Z,52.97
2023-04-01T02:30:11.193Z,61.27
2023-04-01T02:35:16.388Z,83.70
2023-04-01T02:40:20.889Z,73.27
2023-04-01T02:45:23.716Z,70.78
2023-04-01T02:50:26.557Z,73.50
2023-04-01T02:55:31.522Z,76.82
2023-04-01T03:00:34.672Z,82.93
2023-04-01T03:05:37.468Z,68.37
2023-04-01T03:10:41.937Z,77.22
2023-04-01T03:15:44.816Z,71.45
2023-04-01T03:20:47.755Z,78.10
2023-04-01T03:25:51.934Z,82.93
2023-04-01T03:30:54.868Z,70.23
2023-04-01T03:35:57.873Z,71.13
2023-04-01T03:41:02.735Z,68.72
2023-04-01T03:46:06.294Z,66.10
2023-04-01T03:51:09.776Z,69.30
2023-04-01T03:56:14.390Z,84.65
2023-04-01T04:01:19.582Z,78.07
2023-04-01T04:06:23.650Z,68.80
2023-04-01T04:11:28.052Z,66.18
2023-04-01T04:16:31.040Z,62.23
2023-04-01T04:21:37.263Z,64.38
2023-04-01T04:26:42.684Z,74.25
2023-04-01T04:31:45.748Z,71.53
2023-04-01T04:36:48.896Z,63.05
2023-04-01T04:41:53.356Z,73.50
2023-04-01T04:46:58.375Z,68.70
2023-04-01T04:52:01.557Z,79.53
2023-04-01T04:57:06.149Z,82.85
2023-04-01T05:02:15.477Z,100.90
2023-04-01T05:07:18.472Z,108.93
2023-04-01T05:12:22.771Z,125.03
2023-04-01T05:17:37.527Z,129.67
2023-04-01T05:22:40.976Z,147.40
2023-04-01T05:27:45.723Z,129.00
2023-04-01T05:32:48.651Z,123.82
2023-04-01T05:37:51.587Z,128.10
2023-04-01T05:42:56.193Z,117.85
2023-04-01T05:47:59.217Z,107.22
2023-04-01T05:53:02.367Z,118.10
2023-04-01T05:58:06.579Z,118.00
2023-04-01T06:03:10.838Z,112.65
2023-04-01T06:08:17.201Z,96.93
2023-04-01T06:13:32.537Z,102.27
2023-04-01T06:18:47.061Z,92.30
2023-04-01T06:23:59.683Z,103.47
2023-04-01T06:29:27.114Z,127.30
2023-04-01T06:34:50.120Z,107.70
2023-04-01T06:40:06.824Z,99.88
2023-04-01T06:45:23.022Z,90.18
2023-04-01T06:50:55.353Z,103.38
2023-04-01T06:56:19.486Z,115.20
2023-04-01T07:01:43.685Z,120.93
2023-04-01T07:06:50.604Z,106.60
2023-04-01T07:11:56.072Z,95.00
2023-04-01T07:17:23.621Z,81.95
2023-04-01T07:22:32.748Z,74.70
2023-04-01T07:27:43.482Z,62.60
2023-04-01T07:32:50.746Z,96.27
2023-04-01T07:38:04.675Z,65.65
2023-04-01T07:43:21.360Z,67.30
2023-04-01T07:48:38.007Z,80.53
2023-04-01T07:53:46.307Z,97.43
2023-04-01T07:58:56.795Z,105.60
2023-04-01T08:04:27.935Z,94.50
2023-04-01T08:09:37.146Z,82.22
2023-04-01T08:15:09.478Z,88.95
2023-04-01T08:20:40.818Z,78.22
2023-04-01T08:25:50.596Z,92.28
2023-04-01T08:30:57.554Z,83.05
2023-04-01T08:36:06.365Z,89.40
2023-04-01T08:41:25.069Z,111.47
2023-04-01T08:47:21.508Z,113.17
2023-04-01T08:52:33.073Z,115.43
2023-04-01T08:57:44.941Z,130.07
2023-04-01T09:03:38.964Z,120.27
2023-04-01T09:08:59.389Z,95.95
2023-04-01T09:14:39.869Z,88.40
2023-04-01T09:20:04.751Z,89.05
2023-04-01T09:25:35.417Z,93.30
2023-04-01T09:30:55.846Z,77.17
2023-04-01T09:36:06.333Z,86.90
2023-04-01T09:41:19.088Z,90.10
2023-04-01T09:46:56.015Z,85.20
2023-04-01T09:52:12.316Z,103.05
2023-04-01T09:57:53.444Z,104.93
2023-04-01T10:03:44.561Z,105.35
2023-04-01T10:09:29.557Z,105.57
2023-04-01T10:15:23.368Z,103.77
2023-04-01T10:20:46.391Z,102.60
2023-04-01T10:26:13.066Z,103.28
2023-04-01T10:31:33.378Z,100.50
2023-04-01T10:36:45.604Z,91.80
2023-04-01T10:42:19.298Z,93.47
2023-04-01T10:48:15.621Z,92.45
2023-04-01T10:53:46.290Z,84.43
2023-04-01T10:59:38.378Z,88.72
2023-04-01T11:05:35.860Z,99.78
2023-04-01T11:11:18.652Z,97.20
2023-04-01T11:16:46.928Z,108.72
2023-04-01T11:22:12.114Z,120.35
2023-04-01T11:27:40.710Z,121.82
2023-04-01T11:32:53.928Z,117.30
2023-04-01T11:38:03.376Z,123.80
2023-04-01T11:43:33.419Z,108.18
2023-04-01T11:49:05.373Z,104.93
2023-04-01T11:54:20.973Z,100.05
2023-04-01T11:59:50.756Z,88.03
2023-04-01T12:05:02.194Z,86.90
2023-04-01T12:10:17.746Z,67.07
2023-04-01T12:15:29.216Z,62.73
2023-04-01T12:20:39.895Z,67.90
2023-04-01T12:26:06.980Z,59.45
2023-04-01T12:31:24.953Z,59.08
2023-04-01T12:36:37.549Z,56.65
2023-04-01T12:41:44.851Z,60.55
2023-04-01T12:47:01.654Z,66.82
2023-04-01T12:52:12.536Z,59.30
2023-04-01T12:57:31.450Z,65.95
2023-04-01T13:02:47.407Z,60.83
2023-04-01T13:08:02.462Z,59.13
2023-04-01T13:13:30.316Z,60.80
2023-04-01T13:18:46.023Z,58.78
2023-04-01T13:23:57.803Z,53.67
2023-04-01T13:29:06.530Z,49.17
2023-04-01T13:34:21.905Z,56.65
2023-04-01T13:39:31.748Z,54.67
2023-04-01T13:44:36.906Z,56.27
2023-04-01T13:50:06.798Z,59.33
2023-04-01T13:55:28.541Z,50.88
2023-04-01T14:00:38.489Z,52.07
2023-04-01T14:05:51.904Z,59.70
2023-04-01T14:11:05.472Z,50.03
2023-04-01T14:16:44.335Z,48.13
2023-04-01T14:21:54.203Z,48.10
2023-04-01T14:27:11.400Z,44.87
2023-04-01T14:32:18.942Z,42.92
2023-04-01T14:37:32.962Z,34.17
2023-04-01T14:43:00.396Z,45.10
2023-04-01T14:48:09.779Z,40.03
2023-04-01T14:53:25.324Z,36.03
2023-04-01T14:58:43.447Z,35.90
2023-04-01T15:03:52.496Z,34.27
2023-04-01T15:09:04.921Z,43.53
2023-04-01T15:14:40.432Z,33.33
2023-04-01T15:20:24.596Z,32.92
2023-04-01T15:25:54.472Z,24.23
2023-04-01T15:30:58.991Z,22.48
2023-04-01T15:36:08.489Z,29.23
2023-04-01T15:41:17.946Z,22.33
2023-04-01T15:46:32.772Z,26.85
2023-04-01T15:51:47.995Z,27.05
2023-04-01T15:57:01.779Z,24.13
2023-04-01T16:02:14.906Z,24.17
2023-04-01T16:07:32.384Z,23.83
2023-04-01T16:12:53.017Z,26.55
2023-04-01T16:18:07.677Z,32.35
2023-04-01T16:23:17.410Z,30.63
2023-04-01T16:28:25.554Z,28.93
2023-04-01T16:33:37.447Z,30.60
2023-04-01T16:38:43.928Z,29.58
2023-04-01T16:43:53.106Z,32.25
2023-04-01T16:49:06.393Z,36.42
2023-04-01T16:54:16.208Z,33.65
2023-04-01T16:59:24.947Z,31.10
2023-04-01T17:04:34.220Z,28.23
2023-04-01T17:09:51.926Z,29.57
2023-04-01T17:15:02.151Z,26.23
2023-04-01T17:20:17.371Z,27.67
2023-04-01T17:25:28.495Z,29.47
2023-04-01T17:30:36.669Z,26.77
2023-04-01T17:35:42.009Z,29.55
2023-04-01T17:40:54.833Z,31.70
2023-04-01T17:46:00.136Z,29.73
2023-04-01T17:51:21.452Z,35.88
2023-04-01T17:56:32.359Z,33.55
2023-04-01T18:01:48.262Z,33.15
2023-04-01T18:07:08.799Z,32.15
2023-04-01T18:12:17.174Z,39.33
2023-04-01T18:17:25.913Z,33.40
2023-04-01T18:22:31.879Z,34.47
2023-04-01T18:27:39.105Z,34.27
2023-04-01T18:32:51.105Z,30.60
2023-04-01T18:37:58.420Z,39.00
2023-04-01T18:43:12.718Z,34.60
2023-04-01T18:48:40.566Z,29.20
2023-04-01T18:53:47.812Z,41.22
2023-04-01T18:58:55.889Z,49.20
2023-04-01T19:04:05.871Z,50.28
2023-04-01T19:09:20.502Z,44.43
2023-04-01T19:14:31.910Z,57.67
2023-04-01T19:19:46.187Z,45.42
2023-04-01T19:25:11.794Z,41.13
2023-04-01T19:30:24.444Z,60.92
2023-04-01T19:35:35.977Z,45.00
2023-04-01T19:40:55.054Z,49.58
2023-04-01T19:46:04.856Z,51.43
2023-04-01T19:51:12.585Z,46.33
2023-04-01T19:56:19.111Z,52.73
2023-04-01T20:01:32.074Z,58.03
2023-04-01T20:06:46.949Z,44.05
2023-04-01T20:11:57.317Z,54.85
2023-04-01T20:17:21.609Z,52.22
2023-04-01T20:22:39.547Z,63.60
2023-04-01T20:27:47.565Z,71.72
2023-04-01T20:33:02.663Z,65.78
2023-04-01T20:38:26.348Z,66.85
2023-04-01T20:43:43.269Z,66.75
2023-04-01T20:49:12.678Z,67.67
2023-04-01T20:54:27.083Z,77.10
2023-04-01T20:59:40.201Z,58.97
2023-04-01T21:05:02.665Z,83.80
2023-04-01T21:10:19.094Z,63.95
2023-04-01T21:15:34.970Z,55.60
2023-04-01T21:21:10.513Z,81.72
2023-04-01T21:26:27.636Z,71.70
2023-04-01T21:31:42.443Z,84.13
2023-04-01T21:36:58.612Z,68.20
2023-04-01T21:42:11.673Z,74.57
2023-04-01T21:47:30.862Z,81.85
2023-04-01T21:53:11.910Z,72.90
2023-04-01T21:58:35.699Z,79.10
2023-04-01T22:03:58.609Z,73.10
2023-04-01T22:09:11.919Z,71.28
2023-04-01T22:14:21.217Z,66.03
2023-04-01T22:19:28.583Z,72.38
2023-04-01T22:24:37.110Z,66.57
2023-04-01T22:29:47.480Z,70.30
2023-04-01T22:34:53.678Z,76.60
2023-04-01T22:40:08.538Z,62.13
2023-04-01T22:45:54.731Z,81.47
2023-04-01T22:51:03.642Z,75.82
2023-04-01T22:56:09.683Z,72.00
2023-04-01T23:01:17.157Z,72.35
2023-04-01T23:06:23.187Z,73.47
2023-04-01T23:11:29.465Z,55.45
2023-04-01T23:16:37.405Z,62.65
2023-04-01T23:21:43.516Z,75.70
2023-04-01T23:26:53.263Z,68.05
2023-04-01T23:32:01.301Z,64.68
2023-04-01T23:37:06.463Z,70.10
2023-04-01T23:42:16.148Z,60.90
2023-04-01T23:47:23.141Z,62.03
2023-04-01T23:52:27.524Z,56.40
2023-04-01T23:57:32.340Z,52.90
